Hartsfield Jackson Atlanta International Airport
KATL : rendu visible

Aérodrome :











RETROUVEZ-NOUS SUR...

 
LOGIN :

S'inscrire | Disclaimer

   EN    FR    IT 

 









Légende :    VFR   VFR Marginal   IFR   IFR Intensif   IFR Très Intensif
Visi : 
Plafond : 
>= 8 km
>= 3000ft
5 à 8 km
1000 à 3000 ft
1500m à 5 km
500 à 1000 ft
800 à 1500m
200 à 500 ft
< 800m
< 200 ft
Symboles :   Orages  Brouillard  Fortes neiges  Fortes précipitations  Vent > 20 kt






- Altitude de l'aérodrome : 1026 ft
- Code IATA : ATL


KATL - Hartsfield Jackson Atlanta International

DERNIER METAR :
  • 191252Z 30007KT 10SM BKN070 BKN095 OVC110 07/02 A2988 RMK AO2 SLP118 BINOVC T00670022

METARs EXPIRÉS :
  • 191152Z 29007KT 10SM FEW060 BKN140 BKN180 07/03 A2986 RMK AO2 SLP113 T00670028 10078 20067 53007
  • 191052Z 30006KT 10SM BKN120 OVC150 07/03 A2984 RMK AO2 SLP106 T00670028
  • 190952Z 29006KT 10SM SCT120 BKN150 OVC200 07/03 A2984 RMK AO2 SLP104 T00670028

TAF KATL
Valide du 19 à 12h jusqu'au 20 à 18h UTC


191120Z 1912/2018 29007KT P6SM SCT050 BKN080 BKN250
FM191700 27010G18KT P6SM FEW040 SCT080
FM192300 28007KT P6SM FEW050 SCT250



MET'MAP, la Météo Aéronautique d'un coup d'oeil ! - Copyright ORBIFLY Décembre 2007 - Disclaimer

ORBIFLY MET'MAP TEAM :

Programmation & Développement : Alexandra Zaïnal
Conception & Développement : Baudouin d'Aumeries
Co-Programmation & Développement : Marc-Olivier Méhu
Soutien technique & logistique : Manuel Goepfert

Contact : metmap@orbifly.com




SOURCES & CREDITS :

   NOAA       Earth
Advisory